createdAt,value
2023-03-20T00:00:58.294Z,95.17
2023-03-20T00:02:01.084Z,94.86
2023-03-20T00:03:03.409Z,94.58
2023-03-20T00:04:06.122Z,94.68
2023-03-20T00:05:17.900Z,94.82
2023-03-20T00:06:25.643Z,95.03
2023-03-20T00:07:27.694Z,95.14
2023-03-20T00:08:29.819Z,95.13
2023-03-20T00:09:32.058Z,95.05
2023-03-20T00:11:53.579Z,95.34
2023-03-20T00:12:58.189Z,95.17
2023-03-20T00:14:03.371Z,95.28
2023-03-20T00:15:09.298Z,95.34
2023-03-20T00:16:11.955Z,95.39
2023-03-20T00:17:17.723Z,94.99
2023-03-20T00:18:22.572Z,94.64
2023-03-20T00:19:28.057Z,94.73
2023-03-20T00:20:31.703Z,94.91
2023-03-20T00:21:33.784Z,95.21
2023-03-20T00:22:35.789Z,95.33
2023-03-20T00:23:37.672Z,95.52
2023-03-20T00:24:40.681Z,95.64
2023-03-20T00:26:01.369Z,95.79
2023-03-20T00:27:03.842Z,96.15
2023-03-20T00:28:29.333Z,96.94
2023-03-20T00:29:32.619Z,97.45
2023-03-20T00:30:34.784Z,97.01
2023-03-20T00:31:38.822Z,97.07
2023-03-20T00:32:41.497Z,97.78
2023-03-20T00:33:44.062Z,97.90
2023-03-20T00:34:45.948Z,98.09
2023-03-20T00:35:49.053Z,98.28
2023-03-20T00:36:52.731Z,98.43
2023-03-20T00:37:57.248Z,98.59
2023-03-20T00:38:59.196Z,98.83
2023-03-20T00:40:01.196Z,98.82
2023-03-20T00:41:07.034Z,98.59
2023-03-20T00:42:12.742Z,98.57
2023-03-20T00:43:14.804Z,98.56
2023-03-20T00:44:23.426Z,98.99
2023-03-20T00:45:28.647Z,98.88
2023-03-20T00:46:34.606Z,98.90
2023-03-20T00:47:38.528Z,98.74
2023-03-20T00:48:41.972Z,98.42
2023-03-20T00:49:45.929Z,98.21
2023-03-20T00:50:48.051Z,98.17
2023-03-20T00:51:49.956Z,97.96
2023-03-20T00:52:52.797Z,97.75
2023-03-20T00:53:54.692Z,97.54
2023-03-20T00:54:56.757Z,97.37
2023-03-20T00:56:00.966Z,97.26
2023-03-20T00:57:06.719Z,96.92
2023-03-20T00:58:10.911Z,96.92
2023-03-20T00:59:19.443Z,97.22
2023-03-20T01:00:35.571Z,97.23
2023-03-20T01:01:37.712Z,97.06
2023-03-20T01:02:39.699Z,97.09
2023-03-20T01:03:42.925Z,97.21
2023-03-20T01:04:45.534Z,97.12
2023-03-20T01:05:49.753Z,96.73
2023-03-20T01:06:52.635Z,96.73
2023-03-20T01:07:55.298Z,96.88
2023-03-20T01:08:57.188Z,96.91
2023-03-20T01:10:00.852Z,96.86
2023-03-20T01:11:03.276Z,96.93
2023-03-20T01:12:06.406Z,96.95
2023-03-20T01:13:28.581Z,97.04
2023-03-20T01:14:32.119Z,97.07
2023-03-20T01:15:35.516Z,97.02
2023-03-20T01:16:38.050Z,97.00
2023-03-20T01:17:40.192Z,97.13
2023-03-20T01:18:43.390Z,97.08
2023-03-20T01:19:45.802Z,97.07
2023-03-20T01:20:49.822Z,97.11
2023-03-20T01:21:52.825Z,97.21
2023-03-20T01:22:54.967Z,97.04
2023-03-20T01:23:58.377Z,96.85
2023-03-20T01:25:00.308Z,97.04
2023-03-20T01:26:04.213Z,96.92
2023-03-20T01:27:15.848Z,96.78
2023-03-20T01:28:21.280Z,96.70
2023-03-20T01:29:25.882Z,96.61
2023-03-20T01:30:30.839Z,96.59
2023-03-20T01:31:33.250Z,97.08
2023-03-20T01:32:35.634Z,97.06
2023-03-20T01:33:37.810Z,97.18
2023-03-20T01:34:39.700Z,97.09
2023-03-20T01:35:42.461Z,97.09
2023-03-20T01:36:52.148Z,97.13
2023-03-20T01:37:55.385Z,97.27
2023-03-20T01:38:58.371Z,97.66
2023-03-20T01:40:00.404Z,98.21
2023-03-20T01:41:15.487Z,98.37
2023-03-20T01:42:17.866Z,98.49
2023-03-20T01:43:21.952Z,98.66
2023-03-20T01:44:30.580Z,98.62
2023-03-20T01:45:35.901Z,98.50
2023-03-20T01:46:39.552Z,98.20
2023-03-20T01:47:42.242Z,98.33
2023-03-20T01:48:54.115Z,98.58
2023-03-20T01:50:25.853Z,98.67
2023-03-20T01:51:30.330Z,98.72
2023-03-20T01:52:32.466Z,98.79
2023-03-20T01:53:34.814Z,98.71
2023-03-20T01:54:39.150Z,98.76
2023-03-20T01:55:43.322Z,98.67
2023-03-20T01:56:49.423Z,98.61
2023-03-20T01:57:53.859Z,98.66
2023-03-20T01:58:59.552Z,98.67
2023-03-20T02:00:05.263Z,98.64
2023-03-20T02:01:09.766Z,98.63
2023-03-20T02:02:15.541Z,98.97
2023-03-20T02:03:18.638Z,99.48
2023-03-20T02:04:24.447Z,99.60
2023-03-20T02:05:27.279Z,99.68
2023-03-20T02:06:30.034Z,99.85
2023-03-20T02:07:34.426Z,99.83
2023-03-20T02:09:50.421Z,99.83
2023-03-20T02:10:54.126Z,99.95
2023-03-20T02:11:58.360Z,100.00
2023-03-20T02:13:02.658Z,100.00
2023-03-20T02:14:06.109Z,100.00
2023-03-20T02:15:10.502Z,99.93
2023-03-20T02:16:15.427Z,99.84
2023-03-20T02:17:17.935Z,99.71
2023-03-20T02:18:19.977Z,99.61
2023-03-20T02:19:44.171Z,99.59
2023-03-20T02:21:08.304Z,99.63
2023-03-20T02:22:32.625Z,99.65
2023-03-20T02:24:12.103Z,99.66
2023-03-20T02:25:43.984Z,99.71
2023-03-20T02:27:03.200Z,99.69
2023-03-20T02:28:14.739Z,99.63
2023-03-20T02:29:18.393Z,99.74
2023-03-20T02:30:41.345Z,100.00
2023-03-20T02:31:56.183Z,100.00
2023-03-20T02:33:18.544Z,100.00
2023-03-20T02:34:57.961Z,100.00
2023-03-20T02:36:21.051Z,100.00
2023-03-20T02:37:33.631Z,99.72
2023-03-20T02:38:54.529Z,99.18
2023-03-20T02:40:33.571Z,98.90
2023-03-20T02:41:51.182Z,98.48
2023-03-20T02:43:06.031Z,98.11
2023-03-20T02:44:26.437Z,98.04
2023-03-20T02:45:38.126Z,97.95
2023-03-20T02:47:12.346Z,97.78
2023-03-20T02:48:41.345Z,97.64
2023-03-20T02:50:01.739Z,97.58
2023-03-20T02:51:10.432Z,97.41
2023-03-20T02:52:16.195Z,97.28
2023-03-20T02:53:25.031Z,97.28
2023-03-20T02:54:43.105Z,97.21
2023-03-20T02:56:08.430Z,97.16
2023-03-20T02:57:14.376Z,97.12
2023-03-20T02:59:37.162Z,97.55
2023-03-20T03:00:48.804Z,97.72
2023-03-20T03:01:54.730Z,97.65
2023-03-20T03:03:06.297Z,97.88
2023-03-20T03:04:10.266Z,98.00
2023-03-20T03:05:18.645Z,98.17
2023-03-20T03:06:31.848Z,98.22
2023-03-20T03:07:36.273Z,98.36
2023-03-20T03:08:41.954Z,98.35
2023-03-20T03:09:47.792Z,98.26
2023-03-20T03:10:56.764Z,98.15
2023-03-20T03:12:02.538Z,98.25
2023-03-20T03:13:07.738Z,98.20
2023-03-20T03:14:13.528Z,98.19
2023-03-20T03:15:30.837Z,98.10
2023-03-20T03:16:36.740Z,98.14
2023-03-20T03:17:43.536Z,98.10
2023-03-20T03:18:48.249Z,98.20
2023-03-20T03:19:53.438Z,98.23
2023-03-20T03:21:02.082Z,98.15
2023-03-20T03:22:05.712Z,97.99
2023-03-20T03:23:12.603Z,97.87
2023-03-20T03:24:40.233Z,97.83
2023-03-20T03:25:40.098Z,98.20
2023-03-20T03:26:43.016Z,98.28
2023-03-20T03:27:52.367Z,98.27
2023-03-20T03:29:00.765Z,98.31
2023-03-20T03:30:06.658Z,98.33
2023-03-20T03:31:15.366Z,98.17
2023-03-20T03:32:45.452Z,98.02
2023-03-20T03:33:51.185Z,98.02
2023-03-20T03:34:53.904Z,98.22
2023-03-20T03:35:59.580Z,98.24
2023-03-20T03:37:11.825Z,98.23
2023-03-20T03:38:23.561Z,98.26
2023-03-20T03:39:32.376Z,97.97
2023-03-20T03:41:04.135Z,98.03
2023-03-20T03:42:27.583Z,97.81
2023-03-20T03:43:51.630Z,97.72
2023-03-20T03:45:00.229Z,97.60
2023-03-20T03:46:06.230Z,97.46
2023-03-20T03:47:18.239Z,97.39
2023-03-20T03:48:23.985Z,97.19
2023-03-20T03:49:29.782Z,97.09
2023-03-20T03:50:38.277Z,96.98
2023-03-20T03:51:43.969Z,96.96
2023-03-20T03:52:48.812Z,97.01
2023-03-20T03:53:57.580Z,97.01
2023-03-20T03:55:12.080Z,97.27
2023-03-20T03:56:18.078Z,97.56
2023-03-20T03:57:23.910Z,97.98
2023-03-20T03:58:33.328Z,98.30
2023-03-20T03:59:41.915Z,98.85
2023-03-20T04:00:47.832Z,99.13
2023-03-20T04:01:51.952Z,99.41
2023-03-20T04:02:57.055Z,99.56
2023-03-20T04:04:04.872Z,99.60
2023-03-20T04:05:08.870Z,99.60
2023-03-20T04:06:11.870Z,99.23
2023-03-20T04:07:15.021Z,99.07
2023-03-20T04:08:17.194Z,98.63
2023-03-20T04:09:21.369Z,98.53
2023-03-20T04:10:24.317Z,98.58
2023-03-20T04:11:28.299Z,98.71
2023-03-20T04:12:36.394Z,98.91
2023-03-20T04:13:38.461Z,99.19
2023-03-20T04:14:40.362Z,99.47
2023-03-20T04:15:43.617Z,99.51
2023-03-20T04:16:47.535Z,99.32
2023-03-20T04:17:49.679Z,99.42
2023-03-20T04:18:53.030Z,99.38
2023-03-20T04:19:55.378Z,99.02
2023-03-20T04:20:57.875Z,98.80
2023-03-20T04:21:59.802Z,98.85
2023-03-20T04:23:01.811Z,98.97
2023-03-20T04:24:04.594Z,99.29
2023-03-20T04:25:10.537Z,99.27
2023-03-20T04:26:13.382Z,99.44
2023-03-20T04:27:15.364Z,99.57
2023-03-20T04:28:17.245Z,99.59
2023-03-20T04:29:19.252Z,99.47
2023-03-20T04:30:21.462Z,99.36
2023-03-20T04:31:23.589Z,99.20
2023-03-20T04:32:25.732Z,99.47
2023-03-20T04:33:28.524Z,99.96
2023-03-20T04:34:30.416Z,99.94
2023-03-20T04:35:32.349Z,99.72
2023-03-20T04:36:34.856Z,99.66
2023-03-20T04:37:37.014Z,99.51
2023-03-20T04:38:38.991Z,99.42
2023-03-20T04:39:40.877Z,99.56
2023-03-20T04:40:44.399Z,99.54
2023-03-20T04:41:49.466Z,99.22
2023-03-20T04:42:51.548Z,98.62
2023-03-20T04:43:55.465Z,98.25
2023-03-20T04:44:57.582Z,97.99
2023-03-20T04:46:00.658Z,97.87
2023-03-20T04:47:03.990Z,98.01
2023-03-20T04:48:06.990Z,98.08
2023-03-20T04:49:09.002Z,98.18
2023-03-20T04:50:11.454Z,98.07
2023-03-20T04:51:13.512Z,97.94
2023-03-20T04:52:15.695Z,97.92
2023-03-20T04:53:21.002Z,97.79
2023-03-20T04:54:23.504Z,97.76
2023-03-20T04:55:25.546Z,97.78
2023-03-20T04:56:27.988Z,97.82
2023-03-20T04:57:30.000Z,97.72
2023-03-20T04:58:31.887Z,97.68
2023-03-20T04:59:33.910Z,97.43
2023-03-20T05:00:38.325Z,97.39
2023-03-20T05:01:40.252Z,97.37
2023-03-20T05:02:43.756Z,97.34
2023-03-20T05:03:45.979Z,97.09
2023-03-20T05:04:48.008Z,97.05
2023-03-20T05:05:50.233Z,97.11
2023-03-20T05:06:52.681Z,97.04
2023-03-20T05:07:58.097Z,97.25
2023-03-20T05:09:00.493Z,97.17
2023-03-20T05:10:05.942Z,96.83
2023-03-20T05:11:08.221Z,96.60
2023-03-20T05:12:10.575Z,96.76
2023-03-20T05:13:12.853Z,96.64
2023-03-20T05:14:14.887Z,96.70
2023-03-20T05:15:17.693Z,96.63
2023-03-20T05:16:20.236Z,96.58
2023-03-20T05:17:25.481Z,96.39
2023-03-20T05:18:27.864Z,96.50
2023-03-20T05:19:31.131Z,96.45
2023-03-20T05:20:35.488Z,96.39
2023-03-20T05:21:37.608Z,96.41
2023-03-20T05:22:39.560Z,96.42
2023-03-20T05:23:41.556Z,96.20
2023-03-20T05:24:43.671Z,96.30
2023-03-20T05:25:45.678Z,96.19
2023-03-20T05:26:48.110Z,96.22
2023-03-20T05:27:50.224Z,96.23
2023-03-20T05:28:52.347Z,96.38
2023-03-20T05:29:54.495Z,96.37
2023-03-20T05:30:56.895Z,96.21
2023-03-20T05:32:00.224Z,96.26
2023-03-20T05:33:02.315Z,96.29
2023-03-20T05:34:05.053Z,96.29
2023-03-20T05:35:08.034Z,96.21
2023-03-20T05:36:10.177Z,96.25
2023-03-20T05:37:12.119Z,96.30
2023-03-20T05:38:14.149Z,96.39
2023-03-20T05:39:16.270Z,96.26
2023-03-20T05:40:18.804Z,96.39
2023-03-20T05:41:20.799Z,96.68
2023-03-20T05:42:22.680Z,96.92
2023-03-20T05:43:25.095Z,96.78
2023-03-20T05:44:27.249Z,96.81
2023-03-20T05:45:29.976Z,96.81
2023-03-20T05:46:31.999Z,96.90
2023-03-20T05:47:34.194Z,96.93
2023-03-20T05:48:36.082Z,96.81
2023-03-20T05:49:38.083Z,96.56
2023-03-20T05:50:40.766Z,96.48
2023-03-20T05:51:42.658Z,96.47
2023-03-20T05:52:48.623Z,96.44
2023-03-20T05:53:50.684Z,96.66
2023-03-20T05:54:52.744Z,96.76
2023-03-20T05:55:54.677Z,96.81
2023-03-20T05:56:59.007Z,96.70
2023-03-20T05:58:02.751Z,96.71
2023-03-20T05:59:06.925Z,96.43
2023-03-20T06:00:11.041Z,96.15
2023-03-20T06:01:13.080Z,95.75
2023-03-20T06:02:15.777Z,95.28
2023-03-20T06:03:18.270Z,94.46
2023-03-20T06:04:20.307Z,94.05
2023-03-20T06:05:22.203Z,93.37
2023-03-20T06:06:24.614Z,92.49
2023-03-20T06:07:26.546Z,91.53
2023-03-20T06:08:28.517Z,90.83
2023-03-20T06:09:30.391Z,90.03
2023-03-20T06:10:32.718Z,89.26
2023-03-20T06:11:37.371Z,88.43
2023-03-20T06:12:38.665Z,87.55
2023-03-20T06:13:44.467Z,86.89
2023-03-20T06:14:46.386Z,86.28
2023-03-20T06:15:48.415Z,85.83
2023-03-20T06:16:52.515Z,85.54
2023-03-20T06:17:55.638Z,84.97
2023-03-20T06:18:57.554Z,84.37
2023-03-20T06:19:59.559Z,83.90
2023-03-20T06:21:01.572Z,83.74
2023-03-20T06:22:04.133Z,83.40
2023-03-20T06:23:06.838Z,83.21
2023-03-20T06:24:08.795Z,82.85
2023-03-20T06:25:10.693Z,82.14
2023-03-20T06:26:12.805Z,81.72
2023-03-20T06:27:15.018Z,81.13
2023-03-20T06:28:17.072Z,80.76
2023-03-20T06:29:19.014Z,80.31
2023-03-20T06:30:21.068Z,80.07
2023-03-20T06:31:25.624Z,79.84
2023-03-20T06:32:27.606Z,79.68
2023-03-20T06:33:29.494Z,79.29
2023-03-20T06:34:31.566Z,78.90
2023-03-20T06:35:33.790Z,78.77
2023-03-20T06:36:36.893Z,78.56
2023-03-20T06:37:39.328Z,77.87
2023-03-20T06:38:41.351Z,76.78
2023-03-20T06:39:43.686Z,76.78
2023-03-20T06:40:46.070Z,76.57
2023-03-20T06:41:47.965Z,76.29
2023-03-20T06:42:50.006Z,76.33
2023-03-20T06:43:52.270Z,76.01
2023-03-20T06:44:54.454Z,75.50
2023-03-20T06:45:56.478Z,75.40
2023-03-20T06:46:58.787Z,75.43
2023-03-20T06:48:00.859Z,75.20
2023-03-20T06:49:04.305Z,76.17
2023-03-20T06:50:09.147Z,75.74
2023-03-20T06:51:11.109Z,75.16
2023-03-20T06:52:18.751Z,74.15
2023-03-20T06:53:21.688Z,73.55
2023-03-20T06:54:23.599Z,72.79
2023-03-20T06:55:25.623Z,72.22
2023-03-20T06:56:27.641Z,72.44
2023-03-20T06:57:30.988Z,73.18
2023-03-20T06:58:35.037Z,72.46
2023-03-20T06:59:37.128Z,71.73
2023-03-20T07:00:39.246Z,71.11
2023-03-20T07:01:42.036Z,70.78
2023-03-20T07:02:44.124Z,70.46
2023-03-20T07:03:47.062Z,70.05
2023-03-20T07:04:50.174Z,69.88
2023-03-20T07:05:52.211Z,69.51
2023-03-20T07:06:54.981Z,69.78
2023-03-20T07:07:58.294Z,70.00
2023-03-20T07:09:01.075Z,70.06
2023-03-20T07:10:04.626Z,69.84
2023-03-20T07:11:07.388Z,69.50
2023-03-20T07:12:13.128Z,69.24
2023-03-20T07:13:15.085Z,69.03
2023-03-20T07:14:37.791Z,68.69
2023-03-20T07:15:43.880Z,68.32
2023-03-20T07:16:43.888Z,68.16
2023-03-20T07:17:46.635Z,68.65
2023-03-20T07:18:48.784Z,68.47
2023-03-20T07:19:50.803Z,68.74
2023-03-20T07:20:55.493Z,69.07
2023-03-20T07:21:59.992Z,69.18
2023-03-20T07:23:02.166Z,69.07
2023-03-20T07:24:04.348Z,68.40
2023-03-20T07:25:08.062Z,67.89
2023-03-20T07:26:11.949Z,69.71
2023-03-20T07:27:14.676Z,70.52
2023-03-20T07:28:16.850Z,68.04
2023-03-20T07:29:18.729Z,68.04
2023-03-20T07:30:20.849Z,67.20
2023-03-20T07:31:25.748Z,67.80
2023-03-20T07:32:27.734Z,66.88
2023-03-20T07:33:29.808Z,66.44
2023-03-20T07:34:31.704Z,66.11
2023-03-20T07:35:33.974Z,65.52
2023-03-20T07:36:36.255Z,64.99
2023-03-20T07:37:39.495Z,64.68
2023-03-20T07:38:41.627Z,64.13
2023-03-20T07:39:43.715Z,63.76
2023-03-20T07:40:46.040Z,63.69
2023-03-20T07:41:48.243Z,63.01
2023-03-20T07:42:50.233Z,62.37
2023-03-20T07:43:52.597Z,62.31
2023-03-20T07:44:54.554Z,62.52
2023-03-20T07:45:56.679Z,62.46
2023-03-20T07:46:58.949Z,61.26
2023-03-20T07:48:02.064Z,60.98
2023-03-20T07:49:04.111Z,60.83
2023-03-20T07:50:08.294Z,60.51
2023-03-20T07:51:10.982Z,60.52
2023-03-20T07:52:13.426Z,59.53
2023-03-20T07:53:15.478Z,59.54
2023-03-20T07:54:17.905Z,59.62
2023-03-20T07:55:20.084Z,59.85
2023-03-20T07:56:22.238Z,59.69
2023-03-20T07:57:24.131Z,59.07
2023-03-20T07:58:26.135Z,58.97
2023-03-20T07:59:28.011Z,58.80
2023-03-20T08:00:30.332Z,58.75
2023-03-20T08:01:33.065Z,58.24
2023-03-20T08:02:35.096Z,57.63
2023-03-20T08:03:37.219Z,57.10
2023-03-20T08:04:40.288Z,56.78
2023-03-20T08:05:45.834Z,57.25
2023-03-20T08:06:47.342Z,56.60
2023-03-20T08:07:49.549Z,55.47
2023-03-20T08:08:52.041Z,55.50
2023-03-20T08:09:54.598Z,56.11
2023-03-20T08:10:56.806Z,56.87
2023-03-20T08:11:58.715Z,56.47
2023-03-20T08:13:00.822Z,55.97
2023-03-20T08:14:02.800Z,56.26
2023-03-20T08:15:06.503Z,56.85
2023-03-20T08:16:10.159Z,56.78
2023-03-20T08:17:16.070Z,55.51
2023-03-20T08:18:16.902Z,55.68
2023-03-20T08:19:19.018Z,54.69
2023-03-20T08:20:21.002Z,53.84
2023-03-20T08:21:23.175Z,53.94
2023-03-20T08:22:26.166Z,54.92
2023-03-20T08:23:28.371Z,54.44
2023-03-20T08:24:31.858Z,53.71
2023-03-20T08:25:35.242Z,52.83
2023-03-20T08:26:37.672Z,53.46
2023-03-20T08:27:41.192Z,54.23
2023-03-20T08:28:48.389Z,54.43
2023-03-20T08:29:47.271Z,54.86
2023-03-20T08:30:49.687Z,54.33
2023-03-20T08:31:52.062Z,54.07
2023-03-20T08:32:54.143Z,55.18
2023-03-20T08:33:56.459Z,55.63
2023-03-20T08:34:58.424Z,55.73
2023-03-20T08:36:00.487Z,55.71
2023-03-20T08:37:04.264Z,55.54
2023-03-20T08:38:06.340Z,55.14
2023-03-20T08:39:08.715Z,54.96
2023-03-20T08:40:12.332Z,54.56
2023-03-20T08:41:14.946Z,53.73
2023-03-20T08:42:17.915Z,53.90
2023-03-20T08:43:20.771Z,54.35
2023-03-20T08:44:23.206Z,54.34
2023-03-20T08:45:25.466Z,54.46
2023-03-20T08:46:28.253Z,54.33
2023-03-20T08:47:30.965Z,54.17
2023-03-20T08:48:34.990Z,54.16
2023-03-20T08:49:37.263Z,54.25
2023-03-20T08:50:39.475Z,54.10
2023-03-20T08:51:41.474Z,53.86
2023-03-20T08:52:44.593Z,52.84
2023-03-20T08:53:46.923Z,52.29
2023-03-20T08:54:48.929Z,52.69
2023-03-20T08:55:51.913Z,53.24
2023-03-20T08:56:54.477Z,53.37
2023-03-20T08:57:56.642Z,53.79
2023-03-20T08:58:59.102Z,53.76
2023-03-20T09:00:01.231Z,53.43
2023-03-20T09:01:05.595Z,53.63
2023-03-20T09:02:10.307Z,54.00
2023-03-20T09:03:18.003Z,53.82
2023-03-20T09:04:20.171Z,53.95
2023-03-20T09:05:22.157Z,54.00
2023-03-20T09:06:24.275Z,54.19
2023-03-20T09:07:26.398Z,54.11
2023-03-20T09:08:28.449Z,54.30
2023-03-20T09:09:30.636Z,54.17
2023-03-20T09:10:32.993Z,54.55
2023-03-20T09:11:37.652Z,54.40
2023-03-20T09:12:39.731Z,53.74
2023-03-20T09:13:42.083Z,53.38
2023-03-20T09:14:44.844Z,54.26
2023-03-20T09:15:48.088Z,54.19
2023-03-20T09:16:51.661Z,54.03
2023-03-20T09:17:53.928Z,54.09
2023-03-20T09:18:55.975Z,54.12
2023-03-20T09:20:01.906Z,54.46
2023-03-20T09:21:04.758Z,54.63
2023-03-20T09:22:06.864Z,55.09
2023-03-20T09:23:09.214Z,54.72
2023-03-20T09:24:11.897Z,55.22
2023-03-20T09:25:14.588Z,54.78
2023-03-20T09:26:16.984Z,54.65
2023-03-20T09:27:19.854Z,54.34
2023-03-20T09:28:21.940Z,54.78
2023-03-20T09:29:24.367Z,54.78
2023-03-20T09:30:26.695Z,55.11
2023-03-20T09:31:28.903Z,55.47
2023-03-20T09:32:31.001Z,55.40
2023-03-20T09:33:33.283Z,55.74
2023-03-20T09:34:35.233Z,55.52
2023-03-20T09:35:38.802Z,55.62
2023-03-20T09:36:41.122Z,55.57
2023-03-20T09:37:43.474Z,55.51
2023-03-20T09:38:45.359Z,55.61
2023-03-20T09:39:48.239Z,55.51
2023-03-20T09:41:02.127Z,55.63
2023-03-20T09:43:26.967Z,54.35
2023-03-20T09:44:36.193Z,54.51
2023-03-20T09:45:46.199Z,53.99
2023-03-20T09:47:18.915Z,54.16
2023-03-20T09:48:14.848Z,53.66
2023-03-20T09:49:23.639Z,53.49
2023-03-20T09:50:36.057Z,53.59
2023-03-20T09:51:48.510Z,54.02
2023-03-20T09:53:12.196Z,53.79
2023-03-20T09:54:27.093Z,53.16
2023-03-20T09:55:40.965Z,53.02
2023-03-20T09:56:43.394Z,52.28
2023-03-20T09:57:52.724Z,51.98
2023-03-20T09:59:00.996Z,51.93
2023-03-20T10:00:07.431Z,51.79
2023-03-20T10:01:13.053Z,51.55
2023-03-20T10:02:19.236Z,51.37
2023-03-20T10:03:42.212Z,51.52
2023-03-20T10:04:49.317Z,51.77
2023-03-20T10:06:00.937Z,52.26
2023-03-20T10:07:05.218Z,51.32
2023-03-20T10:08:15.027Z,51.67
2023-03-20T10:09:28.571Z,52.17
2023-03-20T10:10:41.144Z,51.79
2023-03-20T10:12:05.919Z,51.02
2023-03-20T10:13:32.363Z,51.19
2023-03-20T10:14:54.791Z,50.60
2023-03-20T10:16:15.111Z,51.19
2023-03-20T10:17:29.848Z,51.50
2023-03-20T10:18:35.548Z,51.53
2023-03-20T10:19:57.403Z,51.77
2023-03-20T10:21:12.201Z,51.32
2023-03-20T10:22:21.189Z,51.13
2023-03-20T10:23:27.172Z,50.69
2023-03-20T10:24:51.240Z,50.52
2023-03-20T10:25:59.883Z,50.90
2023-03-20T10:27:08.303Z,50.53
2023-03-20T10:28:26.008Z,50.22
2023-03-20T10:29:41.629Z,50.11
2023-03-20T10:31:08.778Z,50.55
2023-03-20T10:33:39.409Z,50.89
2023-03-20T10:35:08.864Z,50.59
2023-03-20T10:36:45.411Z,50.47
2023-03-20T10:39:05.076Z,50.56
2023-03-20T10:40:29.230Z,50.78
2023-03-20T10:41:35.014Z,50.28
2023-03-20T10:42:40.739Z,49.69
2023-03-20T10:43:45.177Z,49.50
2023-03-20T10:44:50.985Z,49.93
2023-03-20T10:46:03.041Z,50.28
2023-03-20T10:47:08.849Z,49.98
2023-03-20T10:48:26.992Z,49.83
2023-03-20T10:49:38.566Z,50.18
2023-03-20T10:50:47.547Z,51.06
2023-03-20T10:51:55.620Z,51.21
2023-03-20T10:53:00.137Z,50.77
2023-03-20T10:54:05.916Z,51.13
2023-03-20T10:56:41.286Z,50.96
2023-03-20T10:57:52.863Z,51.11
2023-03-20T10:58:56.599Z,50.76
2023-03-20T10:59:59.254Z,50.71
2023-03-20T11:01:01.484Z,50.65
2023-03-20T11:02:12.234Z,50.33
2023-03-20T11:04:27.357Z,50.78
2023-03-20T11:05:32.743Z,50.78
2023-03-20T11:06:38.869Z,50.93
2023-03-20T11:07:42.167Z,51.25
2023-03-20T11:08:48.165Z,51.28
2023-03-20T11:10:09.054Z,51.19
2023-03-20T11:11:11.196Z,51.46
2023-03-20T11:12:19.412Z,51.47
2023-03-20T11:13:36.292Z,51.30
2023-03-20T11:14:39.175Z,51.32
2023-03-20T11:15:41.297Z,51.97
2023-03-20T11:16:50.303Z,52.15
2023-03-20T11:18:05.453Z,52.04
2023-03-20T11:19:11.057Z,52.04
2023-03-20T11:20:14.493Z,52.03
2023-03-20T11:21:20.278Z,52.16
2023-03-20T11:22:25.366Z,52.22
2023-03-20T11:23:35.649Z,52.29
2023-03-20T11:24:41.128Z,52.14
2023-03-20T11:25:57.996Z,52.05
2023-03-20T11:27:15.450Z,52.43
2023-03-20T11:28:27.488Z,52.40
2023-03-20T11:29:31.898Z,51.86
2023-03-20T11:30:37.980Z,51.96
2023-03-20T11:31:41.578Z,51.86
2023-03-20T11:32:49.468Z,51.76
2023-03-20T11:34:16.634Z,51.64
2023-03-20T11:35:29.030Z,51.75
2023-03-20T11:36:33.112Z,51.74
2023-03-20T11:37:35.962Z,52.38
2023-03-20T11:38:45.511Z,52.13
2023-03-20T11:40:03.532Z,52.74
2023-03-20T11:41:09.265Z,52.20
2023-03-20T11:42:26.290Z,51.92
2023-03-20T11:43:28.444Z,52.25
2023-03-20T11:44:35.418Z,52.16
2023-03-20T11:45:44.316Z,52.20
2023-03-20T11:46:59.575Z,51.69
2023-03-20T11:48:04.044Z,51.32
2023-03-20T11:49:19.040Z,51.32
2023-03-20T11:50:33.675Z,51.59
2023-03-20T11:51:36.822Z,51.80
2023-03-20T11:52:39.992Z,51.44
2023-03-20T11:53:48.579Z,51.31
2023-03-20T11:54:54.207Z,51.33
2023-03-20T11:56:06.165Z,49.32
2023-03-20T11:57:11.955Z,49.30
2023-03-20T11:58:16.686Z,48.76
2023-03-20T11:59:22.886Z,48.23
2023-03-20T12:00:31.813Z,49.01
2023-03-20T12:01:43.048Z,49.22
2023-03-20T12:02:45.305Z,49.44
2023-03-20T12:04:11.069Z,49.76
2023-03-20T12:05:35.340Z,49.92
2023-03-20T12:06:44.316Z,50.36
2023-03-20T12:07:51.257Z,50.12
2023-03-20T12:09:02.769Z,50.34
2023-03-20T12:10:07.865Z,50.60
2023-03-20T12:11:22.456Z,50.54
2023-03-20T12:12:43.478Z,50.35
2023-03-20T12:13:48.878Z,50.61
2023-03-20T12:15:06.916Z,50.76
2023-03-20T12:17:49.470Z,50.97
2023-03-20T12:19:07.010Z,50.97
2023-03-20T12:20:42.291Z,51.36
2023-03-20T12:21:48.531Z,50.54
2023-03-20T12:23:11.936Z,48.58
2023-03-20T12:25:50.732Z,48.03
2023-03-20T12:27:02.416Z,48.23
2023-03-20T12:28:23.556Z,47.82
2023-03-20T12:29:31.860Z,48.27
2023-03-20T12:31:10.656Z,48.07
2023-03-20T12:32:16.498Z,48.11
2023-03-20T12:33:28.144Z,48.41
2023-03-20T12:34:36.771Z,48.33
2023-03-20T12:35:42.524Z,48.34
2023-03-20T12:36:48.012Z,48.24
2023-03-20T12:37:51.877Z,48.00
2023-03-20T12:38:54.837Z,47.52
2023-03-20T12:40:00.528Z,47.59
2023-03-20T12:41:24.469Z,47.10
2023-03-20T12:42:35.750Z,47.01
2023-03-20T12:43:44.481Z,47.37
2023-03-20T12:44:56.103Z,47.73
2023-03-20T12:46:08.229Z,47.61
2023-03-20T12:47:19.772Z,47.21
2023-03-20T12:48:40.949Z,47.38
2023-03-20T12:50:08.290Z,47.95
2023-03-20T12:51:39.760Z,47.55
2023-03-20T12:52:57.570Z,47.72
2023-03-20T12:58:22.156Z,48.00
2023-03-20T13:00:01.748Z,47.96
2023-03-20T13:01:10.470Z,48.43
2023-03-20T13:02:22.628Z,48.26
2023-03-20T13:03:43.631Z,48.29
2023-03-20T13:04:55.415Z,48.70
2023-03-20T13:06:16.383Z,48.33
2023-03-20T13:08:38.534Z,48.17
2023-03-20T13:10:01.291Z,48.43
2023-03-20T13:11:17.180Z,48.53
2023-03-20T13:12:41.420Z,48.54
2023-03-20T13:13:48.192Z,48.32
2023-03-20T13:15:14.632Z,47.55
2023-03-20T13:17:39.442Z,47.44
2023-03-20T13:18:54.311Z,47.79
2023-03-20T13:20:00.124Z,47.27
2023-03-20T13:21:06.042Z,47.50
2023-03-20T13:22:20.946Z,48.31
2023-03-20T13:23:26.716Z,48.63
2023-03-20T13:24:53.003Z,48.17
2023-03-20T13:26:01.998Z,48.39
2023-03-20T13:27:34.412Z,49.52
2023-03-20T13:28:49.807Z,49.79
2023-03-20T13:30:26.239Z,50.40
2023-03-20T13:31:40.898Z,50.71
2023-03-20T13:33:20.608Z,50.65
2023-03-20T13:34:44.661Z,50.26
2023-03-20T13:36:11.702Z,51.09
2023-03-20T13:37:38.655Z,50.64
2023-03-20T13:38:44.447Z,50.87
2023-03-20T13:40:07.043Z,50.83
2023-03-20T13:41:10.271Z,50.36
2023-03-20T13:42:16.172Z,50.55
2023-03-20T13:43:26.220Z,50.23
2023-03-20T13:44:31.603Z,49.84
2023-03-20T13:45:42.049Z,49.95
2023-03-20T13:48:01.488Z,50.03
2023-03-20T13:49:27.282Z,50.22
2023-03-20T13:50:33.529Z,50.33
2023-03-20T13:51:42.448Z,50.54
2023-03-20T13:52:51.788Z,51.19
2023-03-20T13:54:14.322Z,50.64
2023-03-20T13:55:25.544Z,51.01
2023-03-20T13:56:32.185Z,51.06
2023-03-20T13:57:41.313Z,51.05
2023-03-20T13:58:47.201Z,51.16
2023-03-20T14:00:17.461Z,51.10
2023-03-20T14:01:26.765Z,51.24
2023-03-20T14:02:48.698Z,51.31
2023-03-20T14:03:52.697Z,51.45
2023-03-20T14:05:01.706Z,51.75
2023-03-20T14:06:32.428Z,51.73
2023-03-20T14:07:37.525Z,51.71
2023-03-20T14:08:43.286Z,51.37
2023-03-20T14:09:45.662Z,51.66
2023-03-20T14:10:50.080Z,52.50
2023-03-20T14:11:55.438Z,52.67
2023-03-20T14:14:16.784Z,52.76
2023-03-20T14:15:21.121Z,52.80
2023-03-20T14:16:25.618Z,53.03
2023-03-20T14:17:30.122Z,53.04
2023-03-20T14:18:32.453Z,53.01
2023-03-20T14:19:37.912Z,53.62
2023-03-20T14:20:42.909Z,53.58
2023-03-20T14:21:48.114Z,53.73
2023-03-20T14:22:50.779Z,53.60
2023-03-20T14:24:05.419Z,53.61
2023-03-20T14:25:11.449Z,53.60
2023-03-20T14:26:20.344Z,53.70
2023-03-20T14:27:42.918Z,53.56
2023-03-20T14:28:30.937Z,53.40
2023-03-20T14:29:38.262Z,53.23
2023-03-20T14:30:43.854Z,53.29
2023-03-20T14:31:50.091Z,53.31
2023-03-20T14:32:55.879Z,53.33
2023-03-20T14:34:01.607Z,53.59
2023-03-20T14:35:22.603Z,53.26
2023-03-20T14:36:29.637Z,53.54
2023-03-20T14:38:09.325Z,53.34
2023-03-20T14:39:22.160Z,52.96
2023-03-20T14:40:28.094Z,53.20
2023-03-20T14:41:36.839Z,53.41
2023-03-20T14:42:51.338Z,53.65
2023-03-20T14:44:27.823Z,53.64
2023-03-20T14:45:39.854Z,53.67
2023-03-20T14:46:55.221Z,54.16